sensor_id;sensor_type;location;lat;lon;timestamp;pressure;altitude;pressure_sealevel;temperature;humidity
17649;BME280;8943;51.110;-4.158;2023-04-19T00:01:33;102053.38;;;14.83;40.93
17649;BME280;8943;51.110;-4.158;2023-04-19T00:04:01;102058.88;;;14.82;41.01
17649;BME280;8943;51.110;-4.158;2023-04-19T00:06:30;102066.19;;;14.80;40.85
17649;BME280;8943;51.110;-4.158;2023-04-19T00:09:00;102067.34;;;14.76;40.86
17649;BME280;8943;51.110;-4.158;2023-04-19T00:11:29;102058.66;;;14.72;41.19
17649;BME280;8943;51.110;-4.158;2023-04-19T00:13:59;102055.97;;;14.72;41.13
17649;BME280;8943;51.110;-4.158;2023-04-19T00:16:28;102052.44;;;14.72;41.10
17649;BME280;8943;51.110;-4.158;2023-04-19T00:18:59;102065.72;;;14.73;41.33
17649;BME280;8943;51.110;-4.158;2023-04-19T00:21:28;102062.97;;;14.75;41.45
17649;BME280;8943;51.110;-4.158;2023-04-19T00:23:57;102055.66;;;14.77;41.46
17649;BME280;8943;51.110;-4.158;2023-04-19T00:26:27;102051.06;;;14.79;41.49
17649;BME280;8943;51.110;-4.158;2023-04-19T00:28:56;102050.94;;;14.80;41.46
17649;BME280;8943;51.110;-4.158;2023-04-19T00:31:24;102046.22;;;14.84;41.57
17649;BME280;8943;51.110;-4.158;2023-04-19T00:33:55;102045.13;;;14.86;41.65
17649;BME280;8943;51.110;-4.158;2023-04-19T00:36:23;102037.94;;;14.87;41.54
17649;BME280;8943;51.110;-4.158;2023-04-19T00:38:52;102034.50;;;14.85;41.58
17649;BME280;8943;51.110;-4.158;2023-04-19T00:41:20;102029.16;;;14.85;41.51
17649;BME280;8943;51.110;-4.158;2023-04-19T00:43:51;102032.03;;;14.82;41.46
17649;BME280;8943;51.110;-4.158;2023-04-19T00:46:20;102032.16;;;14.80;41.52
17649;BME280;8943;51.110;-4.158;2023-04-19T00:48:52;102032.47;;;14.76;41.45
17649;BME280;8943;51.110;-4.158;2023-04-19T00:51:51;102017.75;;;14.68;41.49
17649;BME280;8943;51.110;-4.158;2023-04-19T00:54:19;102015.31;;;14.65;41.50
17649;BME280;8943;51.110;-4.158;2023-04-19T00:57:05;102015.94;;;14.56;41.51
17649;BME280;8943;51.110;-4.158;2023-04-19T00:59:37;102011.00;;;14.50;41.44
17649;BME280;8943;51.110;-4.158;2023-04-19T01:02:08;102011.38;;;14.44;41.72
17649;BME280;8943;51.110;-4.158;2023-04-19T01:04:37;102013.53;;;14.39;41.70
17649;BME280;8943;51.110;-4.158;2023-04-19T01:07:06;102009.38;;;14.35;41.68
17649;BME280;8943;51.110;-4.158;2023-04-19T01:09:39;101997.22;;;14.29;41.86
17649;BME280;8943;51.110;-4.158;2023-04-19T01:12:08;102009.88;;;14.27;41.84
17649;BME280;8943;51.110;-4.158;2023-04-19T01:14:39;101998.72;;;14.21;41.80
17649;BME280;8943;51.110;-4.158;2023-04-19T01:17:08;101995.28;;;14.18;41.74
17649;BME280;8943;51.110;-4.158;2023-04-19T01:19:36;101988.63;;;14.11;41.82
17649;BME280;8943;51.110;-4.158;2023-04-19T01:22:05;101988.81;;;14.08;41.51
17649;BME280;8943;51.110;-4.158;2023-04-19T01:24:49;101994.63;;;14.02;41.74
17649;BME280;8943;51.110;-4.158;2023-04-19T01:27:18;102001.13;;;13.98;41.80
17649;BME280;8943;51.110;-4.158;2023-04-19T01:29:49;101991.81;;;13.91;41.86
17649;BME280;8943;51.110;-4.158;2023-04-19T01:32:32;101996.63;;;13.86;42.02
17649;BME280;8943;51.110;-4.158;2023-04-19T01:35:01;101989.94;;;13.79;41.88
17649;BME280;8943;51.110;-4.158;2023-04-19T01:37:30;101982.09;;;13.76;41.98
17649;BME280;8943;51.110;-4.158;2023-04-19T01:40:13;101987.66;;;13.73;41.97
17649;BME280;8943;51.110;-4.158;2023-04-19T01:42:43;101987.13;;;13.68;42.07
17649;BME280;8943;51.110;-4.158;2023-04-19T01:45:11;101983.78;;;13.64;42.21
17649;BME280;8943;51.110;-4.158;2023-04-19T01:47:40;101974.09;;;13.61;42.26
17649;BME280;8943;51.110;-4.158;2023-04-19T01:50:08;101980.75;;;13.56;42.20
17649;BME280;8943;51.110;-4.158;2023-04-19T01:52:38;101976.47;;;13.53;42.37
17649;BME280;8943;51.110;-4.158;2023-04-19T01:55:06;101978.47;;;13.50;42.70
17649;BME280;8943;51.110;-4.158;2023-04-19T01:57:38;101976.09;;;13.45;42.47
17649;BME280;8943;51.110;-4.158;2023-04-19T02:00:14;101972.56;;;13.45;42.20
17649;BME280;8943;51.110;-4.158;2023-04-19T02:02:46;101980.88;;;13.40;42.55
17649;BME280;8943;51.110;-4.158;2023-04-19T02:05:28;101970.38;;;13.37;42.27
17649;BME280;8943;51.110;-4.158;2023-04-19T02:08:25;101973.38;;;13.32;42.31
17649;BME280;8943;51.110;-4.158;2023-04-19T02:11:32;101971.19;;;13.25;42.27
17649;BME280;8943;51.110;-4.158;2023-04-19T02:14:05;101974.06;;;13.22;42.50
17649;BME280;8943;51.110;-4.158;2023-04-19T02:16:34;101981.19;;;13.21;42.48
17649;BME280;8943;51.110;-4.158;2023-04-19T02:19:04;101978.81;;;13.17;42.57
17649;BME280;8943;51.110;-4.158;2023-04-19T02:21:32;101977.28;;;13.12;42.73
17649;BME280;8943;51.110;-4.158;2023-04-19T02:24:02;101973.19;;;13.07;42.75
17649;BME280;8943;51.110;-4.158;2023-04-19T02:26:30;101974.16;;;13.06;43.09
17649;BME280;8943;51.110;-4.158;2023-04-19T02:28:59;101968.06;;;13.04;42.80
17649;BME280;8943;51.110;-4.158;2023-04-19T02:31:30;101965.44;;;13.02;43.27
17649;BME280;8943;51.110;-4.158;2023-04-19T02:33:59;101951.44;;;12.99;43.21
17649;BME280;8943;51.110;-4.158;2023-04-19T02:36:27;101965.66;;;12.99;43.42
17649;BME280;8943;51.110;-4.158;2023-04-19T02:38:56;101962.13;;;12.99;43.56
17649;BME280;8943;51.110;-4.158;2023-04-19T02:41:25;101958.59;;;12.98;43.61
17649;BME280;8943;51.110;-4.158;2023-04-19T02:43:54;101958.59;;;12.98;43.63
17649;BME280;8943;51.110;-4.158;2023-04-19T02:46:23;101953.25;;;12.98;43.68
17649;BME280;8943;51.110;-4.158;2023-04-19T02:48:53;101952.19;;;13.01;43.93
17649;BME280;8943;51.110;-4.158;2023-04-19T02:51:22;101954.97;;;12.99;43.76
17649;BME280;8943;51.110;-4.158;2023-04-19T02:53:50;101947.00;;;12.98;43.79
17649;BME280;8943;51.110;-4.158;2023-04-19T02:56:18;101943.28;;;13.00;44.06
17649;BME280;8943;51.110;-4.158;2023-04-19T02:58:47;101947.69;;;13.01;44.18
17649;BME280;8943;51.110;-4.158;2023-04-19T03:01:17;101944.03;;;13.02;44.07
17649;BME280;8943;51.110;-4.158;2023-04-19T03:03:45;101935.09;;;13.03;44.09
17649;BME280;8943;51.110;-4.158;2023-04-19T03:06:15;101941.19;;;13.05;44.28
17649;BME280;8943;51.110;-4.158;2023-04-19T03:08:45;101930.59;;;13.04;44.02
17649;BME280;8943;51.110;-4.158;2023-04-19T03:11:14;101926.94;;;13.05;44.41
17649;BME280;8943;51.110;-4.158;2023-04-19T03:13:43;101915.38;;;13.04;44.84
17649;BME280;8943;51.110;-4.158;2023-04-19T03:16:12;101921.59;;;13.05;44.84
17649;BME280;8943;51.110;-4.158;2023-04-19T03:18:40;101918.06;;;13.04;45.03
17649;BME280;8943;51.110;-4.158;2023-04-19T03:21:08;101917.09;;;13.05;44.98
17649;BME280;8943;51.110;-4.158;2023-04-19T03:23:38;101914.25;;;13.08;45.49
17649;BME280;8943;51.110;-4.158;2023-04-19T03:26:06;101924.72;;;13.11;45.45
17649;BME280;8943;51.110;-4.158;2023-04-19T03:28:35;101921.66;;;13.18;45.32
17649;BME280;8943;51.110;-4.158;2023-04-19T03:31:04;101920.50;;;13.22;45.82
17649;BME280;8943;51.110;-4.158;2023-04-19T03:33:32;101917.53;;;13.26;45.83
17649;BME280;8943;51.110;-4.158;2023-04-19T03:36:00;101922.41;;;13.34;45.79
17649;BME280;8943;51.110;-4.158;2023-04-19T03:38:28;101922.00;;;13.40;45.73
17649;BME280;8943;51.110;-4.158;2023-04-19T03:41:00;101911.09;;;13.43;46.10
17649;BME280;8943;51.110;-4.158;2023-04-19T03:43:29;101914.22;;;13.50;46.00
17649;BME280;8943;51.110;-4.158;2023-04-19T03:45:57;101908.53;;;13.54;46.06
17649;BME280;8943;51.110;-4.158;2023-04-19T03:48:25;101904.72;;;13.58;46.03
17649;BME280;8943;51.110;-4.158;2023-04-19T03:50:53;101904.47;;;13.61;46.22
17649;BME280;8943;51.110;-4.158;2023-04-19T03:53:21;101895.28;;;13.65;46.11
17649;BME280;8943;51.110;-4.158;2023-04-19T03:55:50;101897.03;;;13.67;46.35
17649;BME280;8943;51.110;-4.158;2023-04-19T03:58:20;101887.16;;;13.67;46.30
17649;BME280;8943;51.110;-4.158;2023-04-19T04:00:49;101885.03;;;13.72;45.89
17649;BME280;8943;51.110;-4.158;2023-04-19T04:03:17;101885.88;;;13.73;46.12
17649;BME280;8943;51.110;-4.158;2023-04-19T04:05:46;101890.16;;;13.75;46.20
17649;BME280;8943;51.110;-4.158;2023-04-19T04:08:14;101887.41;;;13.77;46.28
17649;BME280;8943;51.110;-4.158;2023-04-19T04:10:42;101893.50;;;13.79;46.18
17649;BME280;8943;51.110;-4.158;2023-04-19T04:13:10;101888.03;;;13.80;46.35
17649;BME280;8943;51.110;-4.158;2023-04-19T04:15:39;101887.16;;;13.80;46.30
17649;BME280;8943;51.110;-4.158;2023-04-19T04:18:07;101885.25;;;13.82;46.13
17649;BME280;8943;51.110;-4.158;2023-04-19T04:20:37;101890.50;;;13.83;46.45
17649;BME280;8943;51.110;-4.158;2023-04-19T04:23:06;101900.25;;;13.84;46.67
17649;BME280;8943;51.110;-4.158;2023-04-19T04:25:36;101898.44;;;13.85;46.41
17649;BME280;8943;51.110;-4.158;2023-04-19T04:28:07;101899.94;;;13.89;46.49
17649;BME280;8943;51.110;-4.158;2023-04-19T04:30:35;101900.72;;;13.91;46.72
17649;BME280;8943;51.110;-4.158;2023-04-19T04:33:05;101900.47;;;13.94;46.81
17649;BME280;8943;51.110;-4.158;2023-04-19T04:35:34;101898.56;;;13.96;46.88
17649;BME280;8943;51.110;-4.158;2023-04-19T04:38:02;101892.22;;;13.97;47.00
17649;BME280;8943;51.110;-4.158;2023-04-19T04:40:48;101892.78;;;14.02;46.96
17649;BME280;8943;51.110;-4.158;2023-04-19T04:43:19;101885.72;;;14.01;46.97
17649;BME280;8943;51.110;-4.158;2023-04-19T04:45:48;101894.47;;;14.03;47.00
17649;BME280;8943;51.110;-4.158;2023-04-19T04:48:19;101885.47;;;14.04;47.21
17649;BME280;8943;51.110;-4.158;2023-04-19T04:50:48;101885.47;;;14.04;47.27
17649;BME280;8943;51.110;-4.158;2023-04-19T04:53:16;101883.56;;;14.06;47.38
17649;BME280;8943;51.110;-4.158;2023-04-19T04:55:44;101896.72;;;14.09;47.40
17649;BME280;8943;51.110;-4.158;2023-04-19T04:58:13;101902.88;;;14.11;47.35
17649;BME280;8943;51.110;-4.158;2023-04-19T05:00:42;101905.53;;;14.11;47.50
17649;BME280;8943;51.110;-4.158;2023-04-19T05:03:11;101892.22;;;14.10;47.46
17649;BME280;8943;51.110;-4.158;2023-04-19T05:05:41;101895.78;;;14.10;47.22
17649;BME280;8943;51.110;-4.158;2023-04-19T05:08:10;101892.13;;;14.11;47.60
17649;BME280;8943;51.110;-4.158;2023-04-19T05:10:39;101893.09;;;14.10;47.66
17649;BME280;8943;51.110;-4.158;2023-04-19T05:13:07;101895.56;;;14.13;47.60
17649;BME280;8943;51.110;-4.158;2023-04-19T05:15:35;101898.13;;;14.15;47.76
17649;BME280;8943;51.110;-4.158;2023-04-19T05:18:04;101892.88;;;14.13;47.70
17649;BME280;8943;51.110;-4.158;2023-04-19T05:20:32;101891.91;;;14.14;47.83
17649;BME280;8943;51.110;-4.158;2023-04-19T05:23:03;101895.56;;;14.13;48.17
17649;BME280;8943;51.110;-4.158;2023-04-19T05:25:31;101900.06;;;14.13;48.08
17649;BME280;8943;51.110;-4.158;2023-04-19T05:27:59;101895.56;;;14.13;48.23
17649;BME280;8943;51.110;-4.158;2023-04-19T05:30:29;101899.88;;;14.16;48.19
17649;BME280;8943;51.110;-4.158;2023-04-19T05:32:57;101903.16;;;14.20;48.30
17649;BME280;8943;51.110;-4.158;2023-04-19T05:35:26;101892.97;;;14.25;47.97
17649;BME280;8943;51.110;-4.158;2023-04-19T05:37:54;101895.44;;;14.28;48.56
17649;BME280;8943;51.110;-4.158;2023-04-19T05:40:24;101893.41;;;14.31;48.13
17649;BME280;8943;51.110;-4.158;2023-04-19T05:42:52;101903.06;;;14.34;48.29
17649;BME280;8943;51.110;-4.158;2023-04-19T05:45:24;101894.94;;;14.35;48.29
17649;BME280;8943;51.110;-4.158;2023-04-19T05:47:52;101895.13;;;14.32;48.36
17649;BME280;8943;51.110;-4.158;2023-04-19T05:50:21;101900.38;;;14.34;48.30
17649;BME280;8943;51.110;-4.158;2023-04-19T05:52:49;101902.13;;;14.35;48.27
17649;BME280;8943;51.110;-4.158;2023-04-19T05:55:17;101917.22;;;14.36;48.25
17649;BME280;8943;51.110;-4.158;2023-04-19T05:57:47;101913.56;;;14.37;48.59
17649;BME280;8943;51.110;-4.158;2023-04-19T06:00:16;101915.94;;;14.41;48.40
17649;BME280;8943;51.110;-4.158;2023-04-19T06:02:45;101922.69;;;14.47;48.63
17649;BME280;8943;51.110;-4.158;2023-04-19T06:05:13;101909.09;;;14.50;48.21
17649;BME280;8943;51.110;-4.158;2023-04-19T06:07:42;101910.59;;;14.54;48.44
17649;BME280;8943;51.110;-4.158;2023-04-19T06:10:21;101911.97;;;14.60;48.36
17649;BME280;8943;51.110;-4.158;2023-04-19T06:12:55;101902.84;;;14.62;48.39
17649;BME280;8943;51.110;-4.158;2023-04-19T06:15:23;101908.00;;;14.65;48.37
17649;BME280;8943;51.110;-4.158;2023-04-19T06:17:53;101911.41;;;14.67;48.29
17649;BME280;8943;51.110;-4.158;2023-04-19T06:20:24;101902.41;;;14.68;48.20
17649;BME280;8943;51.110;-4.158;2023-04-19T06:22:53;101904.13;;;14.70;48.46
17649;BME280;8943;51.110;-4.158;2023-04-19T06:25:21;101911.22;;;14.71;48.39
17649;BME280;8943;51.110;-4.158;2023-04-19T06:27:49;101905.31;;;14.65;48.13
17649;BME280;8943;51.110;-4.158;2023-04-19T06:30:19;101898.13;;;14.66;48.06
17649;BME280;8943;51.110;-4.158;2023-04-19T06:32:47;101913.44;;;14.64;48.10
17649;BME280;8943;51.110;-4.158;2023-04-19T06:35:15;101911.88;;;14.61;48.16
17649;BME280;8943;51.110;-4.158;2023-04-19T06:37:45;101908.66;;;14.56;47.96
17649;BME280;8943;51.110;-4.158;2023-04-19T06:40:13;101905.25;;;14.54;48.19
17649;BME280;8943;51.110;-4.158;2023-04-19T06:42:41;101901.66;;;14.54;48.28
17649;BME280;8943;51.110;-4.158;2023-04-19T06:45:10;101900.94;;;14.52;48.28
17649;BME280;8943;51.110;-4.158;2023-04-19T06:47:40;101903.75;;;14.50;48.40
17649;BME280;8943;51.110;-4.158;2023-04-19T06:50:09;101889.56;;;14.48;48.71
17649;BME280;8943;51.110;-4.158;2023-04-19T06:52:39;101886.56;;;14.53;48.47
17649;BME280;8943;51.110;-4.158;2023-04-19T06:55:08;101875.72;;;14.54;48.56
17649;BME280;8943;51.110;-4.158;2023-04-19T06:57:36;101893.09;;;14.61;48.85
17649;BME280;8943;51.110;-4.158;2023-04-19T07:00:06;101893.63;;;14.66;49.16
17649;BME280;8943;51.110;-4.158;2023-04-19T07:02:36;101903.03;;;14.72;49.17
17649;BME280;8943;51.110;-4.158;2023-04-19T07:05:08;101901.19;;;14.85;49.01
17649;BME280;8943;51.110;-4.158;2023-04-19T07:07:38;101906.41;;;15.00;49.08
17649;BME280;8943;51.110;-4.158;2023-04-19T07:10:08;101899.28;;;15.11;49.03
17649;BME280;8943;51.110;-4.158;2023-04-19T07:12:36;101893.00;;;15.24;49.23
17649;BME280;8943;51.110;-4.158;2023-04-19T07:15:14;101906.00;;;15.41;49.13
17649;BME280;8943;51.110;-4.158;2023-04-19T07:17:43;101893.03;;;15.59;48.86
17649;BME280;8943;51.110;-4.158;2023-04-19T07:20:15;101892.63;;;15.76;48.91
17649;BME280;8943;51.110;-4.158;2023-04-19T07:22:43;101898.19;;;15.97;48.56
17649;BME280;8943;51.110;-4.158;2023-04-19T07:25:12;101896.38;;;16.09;48.56
17649;BME280;8943;51.110;-4.158;2023-04-19T07:27:42;101896.00;;;16.25;48.25
17649;BME280;8943;51.110;-4.158;2023-04-19T07:30:10;101886.72;;;16.29;47.87
17649;BME280;8943;51.110;-4.158;2023-04-19T07:32:39;101898.97;;;16.33;48.29
17649;BME280;8943;51.110;-4.158;2023-04-19T07:35:08;101903.84;;;16.39;47.97
17649;BME280;8943;51.110;-4.158;2023-04-19T07:37:37;101902.41;;;16.46;47.81
17649;BME280;8943;51.110;-4.158;2023-04-19T07:40:07;101912.44;;;16.55;47.91
17649;BME280;8943;51.110;-4.158;2023-04-19T07:42:36;101924.03;;;16.67;47.50
17649;BME280;8943;51.110;-4.158;2023-04-19T07:45:07;101930.91;;;16.71;47.80
17649;BME280;8943;51.110;-4.158;2023-04-19T07:47:36;101930.06;;;16.82;47.50
17649;BME280;8943;51.110;-4.158;2023-04-19T07:50:07;101933.22;;;16.98;47.16
17649;BME280;8943;51.110;-4.158;2023-04-19T07:52:37;101924.88;;;17.12;47.42
17649;BME280;8943;51.110;-4.158;2023-04-19T07:55:06;101918.50;;;17.24;47.32
17649;BME280;8943;51.110;-4.158;2023-04-19T07:57:35;101908.19;;;17.30;46.83
17649;BME280;8943;51.110;-4.158;2023-04-19T08:00:04;101912.44;;;17.43;46.90
17649;BME280;8943;51.110;-4.158;2023-04-19T08:02:32;101910.53;;;17.55;46.85
17649;BME280;8943;51.110;-4.158;2023-04-19T08:05:01;101922.78;;;17.59;46.54
17649;BME280;8943;51.110;-4.158;2023-04-19T08:07:29;101916.25;;;17.73;46.17
17649;BME280;8943;51.110;-4.158;2023-04-19T08:10:00;101915.88;;;17.78;46.19
17649;BME280;8943;51.110;-4.158;2023-04-19T08:12:28;101924.53;;;17.81;45.87
17649;BME280;8943;51.110;-4.158;2023-04-19T08:15:08;101926.66;;;17.78;45.69
17649;BME280;8943;51.110;-4.158;2023-04-19T08:17:57;101919.91;;;17.72;45.43
17649;BME280;8943;51.110;-4.158;2023-04-19T08:20:25;101918.84;;;17.63;45.46
17649;BME280;8943;51.110;-4.158;2023-04-19T08:22:54;101911.66;;;17.53;45.33
17649;BME280;8943;51.110;-4.158;2023-04-19T08:25:29;101915.59;;;17.48;45.51
17649;BME280;8943;51.110;-4.158;2023-04-19T08:27:57;101923.78;;;17.47;45.45
17649;BME280;8943;51.110;-4.158;2023-04-19T08:30:25;101923.41;;;17.51;45.35
17649;BME280;8943;51.110;-4.158;2023-04-19T08:33:03;101910.19;;;17.48;45.09
17649;BME280;8943;51.110;-4.158;2023-04-19T08:35:33;101916.44;;;17.49;45.52
17649;BME280;8943;51.110;-4.158;2023-04-19T08:38:03;101912.97;;;17.58;45.42
17649;BME280;8943;51.110;-4.158;2023-04-19T08:40:42;101909.63;;;17.66;45.36
17649;BME280;8943;51.110;-4.158;2023-04-19T08:43:15;101917.56;;;17.79;45.16
17649;BME280;8943;51.110;-4.158;2023-04-19T08:45:45;101910.94;;;17.83;45.25
17649;BME280;8943;51.110;-4.158;2023-04-19T08:48:15;101899.63;;;17.89;45.01
17649;BME280;8943;51.110;-4.158;2023-04-19T08:50:46;101901.78;;;17.95;44.84
17649;BME280;8943;51.110;-4.158;2023-04-19T08:53:32;101895.44;;;17.96;44.41
17649;BME280;8943;51.110;-4.158;2023-04-19T08:56:07;101910.00;;;17.93;44.48
17649;BME280;8943;51.110;-4.158;2023-04-19T08:58:57;101917.63;;;17.88;44.38
17649;BME280;8943;51.110;-4.158;2023-04-19T09:01:45;101928.59;;;17.75;44.31
17649;BME280;8943;51.110;-4.158;2023-04-19T09:04:14;101925.69;;;17.67;44.56
17649;BME280;8943;51.110;-4.158;2023-04-19T09:07:02;101909.44;;;17.58;44.33
17649;BME280;8943;51.110;-4.158;2023-04-19T09:09:30;101906.38;;;17.51;44.43
17649;BME280;8943;51.110;-4.158;2023-04-19T09:12:16;101906.38;;;17.51;44.40
17649;BME280;8943;51.110;-4.158;2023-04-19T09:14:45;101902.22;;;17.47;44.69
17649;BME280;8943;51.110;-4.158;2023-04-19T09:17:17;101884.81;;;17.51;44.66
17649;BME280;8943;51.110;-4.158;2023-04-19T09:19:46;101884.25;;;17.47;44.56
17649;BME280;8943;51.110;-4.158;2023-04-19T09:22:15;101875.56;;;17.44;44.66
17649;BME280;8943;51.110;-4.158;2023-04-19T09:24:43;101870.16;;;17.44;44.65
17649;BME280;8943;51.110;-4.158;2023-04-19T09:27:24;101863.56;;;17.37;44.56
17649;BME280;8943;51.110;-4.158;2023-04-19T09:29:53;101863.38;;;17.29;44.48
17649;BME280;8943;51.110;-4.158;2023-04-19T09:32:22;101862.63;;;17.27;44.84
17649;BME280;8943;51.110;-4.158;2023-04-19T09:34:52;101849.16;;;17.27;45.04
17649;BME280;8943;51.110;-4.158;2023-04-19T09:37:22;101863.94;;;17.32;44.95
17649;BME280;8943;51.110;-4.158;2023-04-19T09:39:53;101852.28;;;17.43;45.28
17649;BME280;8943;51.110;-4.158;2023-04-19T09:42:23;101861.25;;;17.64;45.32
17649;BME280;8943;51.110;-4.158;2023-04-19T09:45:11;101858.97;;;17.81;45.32
17649;BME280;8943;51.110;-4.158;2023-04-19T09:48:04;101862.97;;;18.07;44.83
17649;BME280;8943;51.110;-4.158;2023-04-19T09:50:33;101870.88;;;18.30;45.09
17649;BME280;8943;51.110;-4.158;2023-04-19T09:53:22;101861.19;;;18.58;44.83
17649;BME280;8943;51.110;-4.158;2023-04-19T09:55:51;101867.28;;;18.90;44.82
17649;BME280;8943;51.110;-4.158;2023-04-19T09:58:29;101870.16;;;19.27;44.87
17649;BME280;8943;51.110;-4.158;2023-04-19T10:01:15;101878.75;;;19.62;44.13
17649;BME280;8943;51.110;-4.158;2023-04-19T10:03:47;101869.63;;;19.92;43.99
17649;BME280;8943;51.110;-4.158;2023-04-19T10:06:19;101872.13;;;20.13;43.46
17649;BME280;8943;51.110;-4.158;2023-04-19T10:08:52;101863.38;;;20.28;42.85
17649;BME280;8943;51.110;-4.158;2023-04-19T10:11:21;101861.19;;;20.42;42.86
17649;BME280;8943;51.110;-4.158;2023-04-19T10:13:56;101861.00;;;20.53;42.24
17649;BME280;8943;51.110;-4.158;2023-04-19T10:16:27;101858.91;;;20.47;41.86
17649;BME280;8943;51.110;-4.158;2023-04-19T10:18:58;101856.91;;;20.39;41.37
17649;BME280;8943;51.110;-4.158;2023-04-19T10:21:28;101852.97;;;20.24;41.48
17649;BME280;8943;51.110;-4.158;2023-04-19T10:23:57;101859.44;;;20.13;41.43
17649;BME280;8943;51.110;-4.158;2023-04-19T10:26:25;101855.31;;;20.09;41.78
17649;BME280;8943;51.110;-4.158;2023-04-19T10:28:56;101838.88;;;20.20;42.18
17649;BME280;8943;51.110;-4.158;2023-04-19T10:31:25;101842.69;;;20.37;41.97
17649;BME280;8943;51.110;-4.158;2023-04-19T10:33:53;101845.78;;;20.52;41.72
17649;BME280;8943;51.110;-4.158;2023-04-19T10:36:26;101841.22;;;20.52;41.07
17649;BME280;8943;51.110;-4.158;2023-04-19T10:38:55;101845.31;;;20.56;41.24
17649;BME280;8943;51.110;-4.158;2023-04-19T10:41:56;101852.38;;;20.67;41.62
17649;BME280;8943;51.110;-4.158;2023-04-19T10:44:26;101849.84;;;20.83;41.45
17649;BME280;8943;51.110;-4.158;2023-04-19T10:46:55;101842.22;;;20.97;41.15
17649;BME280;8943;51.110;-4.158;2023-04-19T10:49:27;101838.03;;;21.02;40.77
17649;BME280;8943;51.110;-4.158;2023-04-19T10:51:55;101834.09;;;20.97;40.68
17649;BME280;8943;51.110;-4.158;2023-04-19T10:54:30;101823.88;;;20.91;40.30
17649;BME280;8943;51.110;-4.158;2023-04-19T10:57:01;101817.34;;;20.83;40.27
17649;BME280;8943;51.110;-4.158;2023-04-19T10:59:33;101816.09;;;20.78;40.49
17649;BME280;8943;51.110;-4.158;2023-04-19T11:02:02;101815.81;;;20.81;40.90
17649;BME280;8943;51.110;-4.158;2023-04-19T11:07:41;101815.06;;;20.89;40.30
17649;BME280;8943;51.110;-4.158;2023-04-19T11:10:09;101818.47;;;20.91;40.03
17649;BME280;8943;51.110;-4.158;2023-04-19T11:12:42;101815.06;;;20.89;40.31
17649;BME280;8943;51.110;-4.158;2023-04-19T11:15:12;101824.16;;;20.88;40.37
17649;BME280;8943;51.110;-4.158;2023-04-19T11:17:40;101803.97;;;20.82;40.11
17649;BME280;8943;51.110;-4.158;2023-04-19T11:20:09;101814.50;;;20.85;40.40
17649;BME280;8943;51.110;-4.158;2023-04-19T11:22:41;101815.06;;;20.89;40.42
17649;BME280;8943;51.110;-4.158;2023-04-19T11:25:10;101815.75;;;20.91;40.47
17649;BME280;8943;51.110;-4.158;2023-04-19T11:27:40;101810.88;;;20.94;40.43
17649;BME280;8943;51.110;-4.158;2023-04-19T11:30:13;101803.28;;;20.98;40.46
17649;BME280;8943;51.110;-4.158;2023-04-19T11:32:46;101805.13;;;20.97;40.26
17649;BME280;8943;51.110;-4.158;2023-04-19T11:35:19;101810.41;;;20.99;40.32
17649;BME280;8943;51.110;-4.158;2023-04-19T11:37:49;101803.66;;;21.03;40.23
17649;BME280;8943;51.110;-4.158;2023-04-19T11:40:20;101806.38;;;21.03;40.17
17649;BME280;8943;51.110;-4.158;2023-04-19T11:42:53;101800.94;;;21.03;40.29
17649;BME280;8943;51.110;-4.158;2023-04-19T11:45:27;101810.66;;;21.05;40.36
17649;BME280;8943;51.110;-4.158;2023-04-19T11:48:04;101806.47;;;21.11;40.31
17649;BME280;8943;51.110;-4.158;2023-04-19T11:50:36;101806.22;;;21.22;40.09
17649;BME280;8943;51.110;-4.158;2023-04-19T11:53:10;101797.47;;;21.28;39.78
17649;BME280;8943;51.110;-4.158;2023-04-19T11:55:44;101807.59;;;21.26;39.88
17649;BME280;8943;51.110;-4.158;2023-04-19T11:58:27;101809.03;;;21.30;39.93
17649;BME280;8943;51.110;-4.158;2023-04-19T12:01:06;101799.19;;;21.29;39.62
17649;BME280;8943;51.110;-4.158;2023-04-19T12:03:40;101790.31;;;21.27;39.95
17649;BME280;8943;51.110;-4.158;2023-04-19T12:06:13;101791.03;;;21.29;39.94
17649;BME280;8943;51.110;-4.158;2023-04-19T12:08:44;101791.28;;;21.36;39.95
17649;BME280;8943;51.110;-4.158;2023-04-19T12:13:41;101794.06;;;21.44;40.00
17649;BME280;8943;51.110;-4.158;2023-04-19T12:16:12;101791.56;;;21.51;39.86
17649;BME280;8943;51.110;-4.158;2023-04-19T12:18:41;101792.28;;;21.53;39.84
17649;BME280;8943;51.110;-4.158;2023-04-19T12:21:23;101785.53;;;21.57;39.81
17649;BME280;8943;51.110;-4.158;2023-04-19T12:23:55;101786.41;;;21.66;39.46
17649;BME280;8943;51.110;-4.158;2023-04-19T12:26:25;101781.84;;;21.66;39.17
17649;BME280;8943;51.110;-4.158;2023-04-19T12:28:54;101773.28;;;21.79;39.01
17649;BME280;8943;51.110;-4.158;2023-04-19T12:31:24;101774.50;;;21.84;38.80
17649;BME280;8943;51.110;-4.158;2023-04-19T12:33:53;101776.19;;;21.85;38.91
17649;BME280;8943;51.110;-4.158;2023-04-19T12:36:21;101778.28;;;21.92;38.82
17649;BME280;8943;51.110;-4.158;2023-04-19T12:38:52;101768.00;;;22.03;38.94
17649;BME280;8943;51.110;-4.158;2023-04-19T12:41:20;101765.84;;;22.15;38.88
17649;BME280;8943;51.110;-4.158;2023-04-19T12:43:48;101770.34;;;22.32;38.77
17649;BME280;8943;51.110;-4.158;2023-04-19T12:46:17;101762.25;;;22.49;38.59
17649;BME280;8943;51.110;-4.158;2023-04-19T12:48:47;101760.59;;;22.64;38.42
17649;BME280;8943;51.110;-4.158;2023-04-19T12:51:15;101747.06;;;22.80;38.03
17649;BME280;8943;51.110;-4.158;2023-04-19T12:53:46;101768.50;;;22.92;38.08
17649;BME280;8943;51.110;-4.158;2023-04-19T12:56:17;101764.78;;;23.09;37.32
17649;BME280;8943;51.110;-4.158;2023-04-19T12:58:45;101761.38;;;23.23;37.26
17649;BME280;8943;51.110;-4.158;2023-04-19T13:01:13;101760.69;;;23.29;37.01
17649;BME280;8943;51.110;-4.158;2023-04-19T13:03:47;101774.97;;;23.48;37.09
17649;BME280;8943;51.110;-4.158;2023-04-19T13:06:16;101774.25;;;23.70;36.79
17649;BME280;8943;51.110;-4.158;2023-04-19T13:08:44;101768.81;;;23.70;37.17
17649;BME280;8943;51.110;-4.158;2023-04-19T13:11:14;101775.25;;;23.61;38.26
17649;BME280;8943;51.110;-4.158;2023-04-19T13:13:43;101762.66;;;23.84;38.40
17649;BME280;8943;51.110;-4.158;2023-04-19T13:16:12;101760.34;;;24.21;38.08